Time;durP1;ratioP1;P1;durP2;ratioP2;P2;SDS_P1;SDS_P2;PMS_P1;PMS_P2;Temp;Humidity;BMP_temperature;BMP_pressure;BME280_temperature;BME280_humidity;BME280_pressure;Samples;Min_cycle;Max_cycle;Signal;HPM_P1;HPM_P2
2021/04/18 00:02:44;;;;;;;6.07;3.90;;;;;;;8.53;57.75;98247.16;8264407;28;20213;-65
2021/04/18 00:06:46;;;;;;;5.20;4.10;;;;;;;8.61;57.81;98240.88;8265766;28;20268;-66
2021/04/18 00:10:49;;;;;;;7.20;3.70;;;;;;;8.64;57.46;98236.50;8265053;28;20206;-66
2021/04/18 00:14:50;;;;;;;5.27;4.13;;;;;;;8.59;57.30;98239.25;8264316;28;20283;-65
2021/04/18 00:18:52;;;;;;;5.57;3.80;;;;;;;8.47;58.07;98232.69;8264651;28;20321;-65
2021/04/18 00:22:54;;;;;;;6.30;4.00;;;;;;;8.51;57.50;98226.56;8264562;28;20213;-65
2021/04/18 00:26:57;;;;;;;5.43;3.67;;;;;;;8.57;57.48;98221.22;8264289;28;20246;-65
2021/04/18 00:30:59;;;;;;;5.30;3.90;;;;;;;8.54;57.69;98226.47;8264222;28;20213;-65
2021/04/18 00:35:01;;;;;;;4.63;3.53;;;;;;;8.52;57.86;98219.66;8264418;28;20226;-66
2021/04/18 00:39:04;;;;;;;5.07;3.80;;;;;;;8.55;57.64;98217.00;8263115;28;20212;-65
2021/04/18 00:43:07;;;;;;;4.87;3.90;;;;;;;8.57;57.48;98217.78;8263706;28;20213;-65
2021/04/18 00:47:09;;;;;;;6.27;3.70;;;;;;;8.60;57.33;98218.53;8262579;28;20277;-66
2021/04/18 00:51:11;;;;;;;6.03;4.30;;;;;;;8.54;57.19;98223.03;8263343;28;20709;-66
2021/04/18 00:55:14;;;;;;;4.67;3.83;;;;;;;8.56;57.21;98229.00;8263104;28;20225;-66
2021/04/18 00:59:17;;;;;;;6.57;4.23;;;;;;;8.50;57.62;98221.47;8262974;28;20202;-65
2021/04/18 01:03:19;;;;;;;6.40;3.90;;;;;;;8.40;57.99;98223.44;8263360;28;20202;-66
2021/04/18 01:07:21;;;;;;;6.50;4.30;;;;;;;8.43;58.01;98220.78;8263845;28;20202;-65
2021/04/18 01:11:23;;;;;;;5.17;4.07;;;;;;;8.56;57.84;98216.09;8262958;28;20208;-66
2021/04/18 01:15:25;;;;;;;5.60;4.07;;;;;;;8.44;57.76;98214.75;8262658;28;20253;-66
2021/04/18 01:19:27;;;;;;;6.57;4.30;;;;;;;8.48;57.81;98215.50;8263451;28;20328;-66
2021/04/18 01:23:33;;;;;;;5.70;3.97;;;;;;;8.38;58.28;98210.59;8263008;28;20214;-66
2021/04/18 01:27:37;;;;;;;9.23;4.13;;;;;;;8.52;57.43;98210.19;8262708;28;20634;-66
2021/04/18 01:31:39;;;;;;;5.27;4.00;;;;;;;8.51;57.62;98202.47;8262691;28;20213;-65
2021/04/18 01:35:46;;;;;;;5.80;4.50;;;;;;;8.37;58.04;98202.91;8262716;28;20213;-66
2021/04/18 01:39:49;;;;;;;5.73;4.13;;;;;;;8.39;58.18;98196.78;8262897;28;20202;-66
2021/04/18 01:43:51;;;;;;;6.23;4.17;;;;;;;8.42;58.36;98198.47;8262608;28;20668;-67
2021/04/18 01:47:52;;;;;;;6.87;4.03;;;;;;;8.47;57.74;98199.16;8262297;28;20218;-66
2021/04/18 01:51:54;;;;;;;7.43;4.80;;;;;;;8.43;58.18;98192.41;8262551;28;20202;-66
2021/04/18 01:55:57;;;;;;;5.63;4.53;;;;;;;8.41;58.32;98196.75;8262555;28;20202;-66
2021/04/18 01:59:59;;;;;;;7.07;4.20;;;;;;;8.57;58.14;98195.41;8262547;28;20297;-66
2021/04/18 02:04:17;;;;;;;6.67;4.30;;;;;;;8.52;57.93;98188.69;8262324;28;20284;-65
2021/04/18 02:08:19;;;;;;;5.27;4.70;;;;;;;8.43;58.19;98182.06;8259946;28;20586;-65
2021/04/18 02:12:22;;;;;;;6.10;4.77;;;;;;;8.44;58.37;98182.94;8261551;28;20230;-66
2021/04/18 02:16:23;;;;;;;6.73;4.33;;;;;;;8.46;58.20;98183.72;8266933;28;20252;-65
2021/04/18 02:20:25;;;;;;;7.03;4.60;;;;;;;8.35;58.31;98187.44;8268339;28;20312;-65
2021/04/18 02:24:28;;;;;;;5.67;4.57;;;;;;;8.42;58.58;98182.97;8267851;28;20248;-65
2021/04/18 02:28:30;;;;;;;5.33;4.47;;;;;;;8.48;58.36;98185.38;8268077;28;20509;-65
2021/04/18 02:32:32;;;;;;;7.13;4.93;;;;;;;8.33;58.31;98183.25;8267774;28;20568;-66
2021/04/18 02:36:34;;;;;;;6.57;4.83;;;;;;;8.43;58.39;98181.25;8267349;28;20293;-65
2021/04/18 02:40:36;;;;;;;5.07;4.57;;;;;;;8.24;59.34;98186.94;8267860;28;20619;-65
2021/04/18 02:44:39;;;;;;;8.07;4.67;;;;;;;8.40;58.51;98183.00;8267634;28;20206;-65
2021/04/18 02:48:41;;;;;;;6.70;4.23;;;;;;;8.39;58.80;98183.88;8266827;28;20206;-65
2021/04/18 02:52:43;;;;;;;5.97;4.63;;;;;;;8.36;58.86;98189.16;8267152;28;20249;-65
2021/04/18 02:56:45;;;;;;;5.73;4.53;;;;;;;8.32;58.91;98187.56;8266747;28;20201;-65
2021/04/18 03:00:48;;;;;;;4.73;4.33;;;;;;;8.37;58.99;98179.66;8266974;28;20218;-66
2021/04/18 03:04:49;;;;;;;6.10;4.50;;;;;;;8.37;58.87;98180.50;8266809;28;20305;-66
2021/04/18 03:08:51;;;;;;;5.57;4.67;;;;;;;8.43;58.69;98183.81;8266639;28;20213;-65
2021/04/18 03:12:53;;;;;;;5.30;4.80;;;;;;;8.46;58.59;98179.41;8266967;28;20237;-65
2021/04/18 03:16:56;;;;;;;5.07;4.53;;;;;;;8.48;58.51;98180.19;8266239;28;20286;-65
2021/04/18 03:20:58;;;;;;;7.37;4.60;;;;;;;8.41;58.83;98174.41;8266592;28;20224;-65
2021/04/18 03:25:00;;;;;;;7.57;4.90;;;;;;;8.37;59.04;98175.34;8266148;28;20259;-65
2021/04/18 03:29:02;;;;;;;6.63;4.80;;;;;;;8.42;58.95;98180.41;8266087;28;20527;-65
2021/04/18 03:33:05;;;;;;;5.13;4.60;;;;;;;8.33;59.08;98181.50;8265942;28;20237;-65
2021/04/18 03:37:07;;;;;;;6.37;5.30;;;;;;;8.34;59.32;98179.75;8266357;28;20245;-65
2021/04/18 03:41:09;;;;;;;6.47;5.10;;;;;;;8.39;58.75;98180.47;8265329;28;20221;-65
2021/04/18 03:45:12;;;;;;;6.87;4.67;;;;;;;8.37;58.76;98175.34;8265647;28;20570;-65
2021/04/18 03:49:15;;;;;;;5.10;4.60;;;;;;;8.40;58.69;98167.50;8265949;28;20578;-66
2021/04/18 03:53:21;;;;;;;7.93;5.40;;;;;;;8.41;58.89;98176.09;8264906;28;20236;-66
2021/04/18 03:57:23;;;;;;;6.77;4.80;;;;;;;8.33;58.89;98167.75;8265841;28;20547;-66
2021/04/18 04:01:25;;;;;;;5.93;5.20;;;;;;;8.27;59.14;98168.78;8265738;28;20253;-65
2021/04/18 04:05:28;;;;;;;5.47;4.80;;;;;;;8.27;59.17;98161.06;8265647;28;20206;-65
2021/04/18 04:09:30;;;;;;;6.90;4.93;;;;;;;8.33;58.95;98163.44;8258377;28;20280;-66
2021/04/18 04:13:33;;;;;;;6.80;5.03;;;;;;;8.25;59.13;98168.00;8235595;28;20229;-65
2021/04/18 04:17:36;;;;;;;5.87;5.00;;;;;;;8.35;58.98;98161.66;8233215;28;20248;-66
2021/04/18 04:21:39;;;;;;;5.43;4.73;;;;;;;8.35;58.90;98171.97;8236269;28;20265;-65
2021/04/18 04:25:40;;;;;;;6.23;5.10;;;;;;;8.35;59.15;98163.38;8233005;28;20210;-65
2021/04/18 04:29:43;;;;;;;7.70;5.30;;;;;;;8.39;58.79;98173.56;8240895;28;20206;-66
2021/04/18 04:33:44;;;;;;;6.73;4.80;;;;;;;8.41;58.75;98173.50;8237844;28;20226;-65
2021/04/18 04:37:47;;;;;;;6.17;5.23;;;;;;;8.40;58.75;98171.84;8232163;28;20629;-65
2021/04/18 04:41:49;;;;;;;7.70;5.33;;;;;;;8.36;58.71;98171.09;8232798;28;20213;-65
2021/04/18 04:45:51;;;;;;;9.13;5.47;;;;;;;8.39;58.91;98167.56;8232425;28;20214;-65
2021/04/18 04:49:53;;;;;;;6.87;5.83;;;;;;;8.26;59.27;98174.84;8231375;28;20210;-65
2021/04/18 04:53:56;;;;;;;7.33;5.93;;;;;;;8.33;59.00;98178.91;8231489;28;20526;-65
2021/04/18 04:57:58;;;;;;;6.30;5.33;;;;;;;8.30;59.09;98175.59;8231756;28;20205;-66
2021/04/18 05:01:59;;;;;;;5.83;5.23;;;;;;;8.44;58.77;98178.63;8242202;28;20202;-65
2021/04/18 05:06:02;;;;;;;7.30;6.07;;;;;;;8.44;58.86;98182.94;8262309;28;20222;-66
2021/04/18 05:10:06;;;;;;;7.30;5.70;;;;;;;8.58;58.12;98176.41;8261303;28;20213;-66
2021/04/18 05:14:07;;;;;;;7.43;5.77;;;;;;;8.58;58.20;98181.56;8260435;28;20229;-67
2021/04/18 05:18:09;;;;;;;10.67;6.10;;;;;;;8.61;58.43;98170.31;8260574;28;20229;-65
2021/04/18 05:22:11;;;;;;;7.23;5.80;;;;;;;8.56;58.62;98183.38;8260222;28;20225;-66
2021/04/18 05:26:14;;;;;;;6.60;6.00;;;;;;;8.59;58.46;98182.44;8261348;28;20205;-66
2021/04/18 05:30:17;;;;;;;8.37;6.30;;;;;;;8.73;58.29;98180.22;8260860;28;20638;-65
2021/04/18 05:34:19;;;;;;;9.03;6.33;;;;;;;8.78;57.91;98178.34;8260564;28;20230;-65
2021/04/18 05:38:21;;;;;;;8.63;6.90;;;;;;;8.81;58.00;98177.38;8263489;28;20206;-66
2021/04/18 05:42:23;;;;;;;13.37;7.10;;;;;;;8.90;57.17;98182.25;8263596;28;20268;-65
2021/04/18 05:46:25;;;;;;;7.87;6.77;;;;;;;8.85;57.88;98183.28;8263328;28;20197;-66
2021/04/18 05:50:27;;;;;;;7.50;6.23;;;;;;;8.69;58.36;98188.97;8266368;28;20198;-65
2021/04/18 05:54:29;;;;;;;11.07;7.07;;;;;;;8.69;58.27;98193.31;8268792;28;20367;-65
2021/04/18 05:58:32;;;;;;;8.80;7.27;;;;;;;8.67;58.77;98187.34;8269065;28;20209;-65
2021/04/18 06:02:34;;;;;;;7.47;6.53;;;;;;;8.90;58.47;98184.81;8268328;28;20328;-65
2021/04/18 06:06:37;;;;;;;9.43;6.97;;;;;;;8.94;58.14;98183.81;8268117;28;20288;-65
2021/04/18 06:10:38;;;;;;;9.37;7.07;;;;;;;9.03;57.54;98185.25;8268719;28;20661;-65
2021/04/18 06:14:41;;;;;;;10.83;6.40;;;;;;;9.04;57.73;98186.94;8269581;28;20237;-65
2021/04/18 06:18:43;;;;;;;8.70;6.60;;;;;;;9.01;57.93;98184.47;8268636;28;20237;-65
2021/04/18 06:22:45;;;;;;;7.77;6.93;;;;;;;9.00;58.49;98187.94;8269045;28;20236;-65
2021/04/18 06:26:47;;;;;;;7.87;6.70;;;;;;;9.24;57.83;98191.41;8268337;28;20206;-65
2021/04/18 06:30:50;;;;;;;10.17;7.03;;;;;;;9.29;57.59;98181.78;8268017;28;20206;-65
2021/04/18 06:34:52;;;;;;;8.43;6.77;;;;;;;9.39;57.51;98177.94;8267922;28;20245;-65
2021/04/18 06:38:54;;;;;;;11.53;6.83;;;;;;;9.50;57.46;98184.44;8268181;28;20198;-65
2021/04/18 06:42:58;;;;;;;9.60;7.00;;;;;;;9.64;56.22;98177.03;8266907;28;20213;-66
2021/04/18 06:47:01;;;;;;;8.30;6.50;;;;;;;9.73;55.88;98181.88;8267117;28;20205;-65
2021/04/18 06:51:04;;;;;;;10.83;7.07;;;;;;;9.83;56.18;98174.63;8267216;28;20201;-65
2021/04/18 06:55:08;;;;;;;10.23;7.23;;;;;;;9.88;56.38;98177.00;8266371;28;20243;-65
2021/04/18 06:59:10;;;;;;;9.13;7.50;;;;;;;10.02;56.07;98187.69;8267150;28;20210;-66
2021/04/18 07:03:21;;;;;;;10.80;7.60;;;;;;;10.15;54.99;98185.47;8266405;28;20214;-66
2021/04/18 07:07:26;;;;;;;8.70;7.63;;;;;;;10.26;54.88;98177.28;8266589;28;20237;-66
2021/04/18 07:11:42;;;;;;;10.73;9.63;;;;;;;10.48;54.33;98182.47;8267671;28;20190;-66
2021/04/18 07:15:45;;;;;;;12.80;9.00;;;;;;;10.52;54.28;98184.88;8266525;28;20233;-65
2021/04/18 07:19:50;;;;;;;11.10;8.00;;;;;;;10.91;53.36;98175.53;8267332;28;20233;-65
2021/04/18 07:24:04;;;;;;;10.07;8.07;;;;;;;11.20;52.84;98173.44;8266437;28;20212;-66
2021/04/18 07:28:21;;;;;;;13.80;9.97;;;;;;;11.26;51.75;98165.38;8266872;28;20202;-66
2021/04/18 07:32:24;;;;;;;12.30;8.97;;;;;;;11.30;51.12;98166.91;8266567;28;20210;-66
2021/04/18 07:36:27;;;;;;;12.03;9.90;;;;;;;11.06;52.31;98171.41;8266403;28;20245;-65
2021/04/18 07:40:31;;;;;;;17.83;10.67;;;;;;;10.95;50.86;98170.13;8266325;28;20269;-65
2021/04/18 07:44:33;;;;;;;11.50;10.40;;;;;;;10.92;51.47;98174.59;8265645;28;20209;-66
2021/04/18 07:48:35;;;;;;;13.57;11.37;;;;;;;10.80;51.48;98173.38;8266039;28;20206;-66
2021/04/18 07:52:41;;;;;;;14.67;11.40;;;;;;;10.90;52.08;98181.59;8265256;28;20206;-65
2021/04/18 07:56:44;;;;;;;12.27;10.43;;;;;;;11.00;51.56;98179.47;8265615;28;20229;-65
2021/04/18 08:00:46;;;;;;;12.03;10.73;;;;;;;11.27;50.37;98182.59;8264006;28;20518;-65
2021/04/18 08:04:51;;;;;;;16.13;12.50;;;;;;;11.24;49.62;98181.00;8260894;28;20237;-67
2021/04/18 08:08:54;;;;;;;18.27;12.23;;;;;;;11.30;49.79;98172.94;8264061;28;20657;-66
2021/04/18 08:13:08;;;;;;;16.03;12.57;;;;;;;11.10;50.10;98178.16;8260068;28;20236;-66
2021/04/18 08:17:12;;;;;;;16.27;12.17;;;;;;;11.35;49.70;98168.41;8260231;28;20319;-66
2021/04/18 08:21:27;;;;;;;17.40;12.10;;;;;;;11.49;49.80;98177.31;8246107;28;20249;-66
2021/04/18 08:25:30;;;;;;;17.73;12.20;;;;;;;11.38;49.92;98176.94;8261590;28;20294;-66
2021/04/18 08:29:34;;;;;;;15.10;12.20;;;;;;;11.51;49.65;98178.09;8251885;28;20667;-66
2021/04/18 08:33:44;;;;;;;14.73;12.33;;;;;;;11.45;49.97;98175.78;8260891;28;20313;-66
2021/04/18 08:38:16;;;;;;;15.37;11.57;;;;;;;11.55;50.60;98182.22;8264662;28;20234;-65
2021/04/18 08:42:28;;;;;;;13.60;12.03;;;;;;;11.78;50.11;98188.13;8262365;28;20612;-66
2021/04/18 08:46:29;;;;;;;12.53;11.23;;;;;;;11.78;49.81;98183.78;8265297;28;20209;-67
2021/04/18 08:50:32;;;;;;;16.00;11.50;;;;;;;11.81;49.25;98185.41;8264687;28;20205;-66
2021/04/18 08:54:36;;;;;;;14.90;12.23;;;;;;;11.99;48.96;98181.16;8262945;28;20550;-65
2021/04/18 08:58:39;;;;;;;15.43;12.17;;;;;;;11.99;48.55;98181.16;8246818;28;20198;-66
2021/04/18 09:02:41;;;;;;;13.50;12.00;;;;;;;11.94;49.03;98191.75;8264387;28;20205;-66
2021/04/18 09:06:47;;;;;;;16.63;11.80;;;;;;;12.06;49.23;98182.53;8265069;28;20480;-66
2021/04/18 09:11:02;;;;;;;14.33;12.20;;;;;;;11.56;49.79;98183.94;8251941;28;20203;-65
2021/04/18 09:15:08;;;;;;;13.37;11.13;;;;;;;11.70;49.62;98184.13;8239440;28;20234;-65
2021/04/18 09:19:33;;;;;;;13.67;10.97;;;;;;;11.45;48.32;98180.97;8241896;28;20237;-65
2021/04/18 09:23:59;;;;;;;12.30;9.50;;;;;;;11.58;47.59;98179.50;8225373;28;20487;-66
2021/04/18 09:28:01;;;;;;;15.77;11.33;;;;;;;11.35;50.31;98181.38;8248870;28;20221;-67
2021/04/18 09:32:07;;;;;;;13.80;11.77;;;;;;;11.41;51.22;98182.03;8258708;28;20210;-65
2021/04/18 09:36:11;;;;;;;12.90;11.07;;;;;;;11.38;50.84;98188.16;8263395;28;20218;-67
2021/04/18 09:40:16;;;;;;;832.30;632.77;;;;;;;12.19;59.16;98182.81;8248592;28;20210;-66
2021/04/18 09:44:29;;;;;;;40.63;29.93;;;;;;;11.76;49.97;98183.00;8237245;28;20237;-65
2021/04/18 09:48:33;;;;;;;14.07;11.90;;;;;;;12.02;48.74;98187.03;8231787;28;20665;-66
2021/04/18 09:52:39;;;;;;;18.77;14.40;;;;;;;12.03;49.60;98188.72;8231448;28;20273;-66
2021/04/18 09:56:41;;;;;;;330.67;218.67;;;;;;;13.70;53.26;98183.88;8230828;28;20654;-70
2021/04/18 10:00:43;;;;;;;68.20;43.73;;;;;;;14.16;46.10;98186.59;8238835;28;20218;-71
2021/04/18 10:04:46;;;;;;;22.57;16.40;;;;;;;14.25;44.09;98178.25;8249493;28;20202;-70
2021/04/18 10:08:54;;;;;;;15.13;12.57;;;;;;;14.35;43.56;98188.16;8256737;28;20214;-70
2021/04/18 10:12:56;;;;;;;16.83;12.43;;;;;;;14.34;43.87;98176.09;8262499;28;20213;-70
2021/04/18 10:16:58;;;;;;;18.20;11.87;;;;;;;14.36;43.65;98179.44;8262296;28;20785;-70
2021/04/18 10:21:17;;;;;;;15.53;13.30;;;;;;;13.62;45.56;98173.88;8263387;28;20202;-66
2021/04/18 10:25:19;;;;;;;15.77;14.17;;;;;;;13.33;46.63;98178.03;8251770;28;20225;-66
2021/04/18 10:29:21;;;;;;;15.80;14.07;;;;;;;13.60;46.23;98177.50;8247154;28;20198;-66
2021/04/18 10:33:23;;;;;;;14.97;13.37;;;;;;;13.66;45.31;98169.38;8241913;28;20226;-65
2021/04/18 10:37:28;;;;;;;15.60;14.03;;;;;;;13.73;44.63;98178.53;8247779;28;20197;-66
2021/04/18 10:41:30;;;;;;;14.10;12.53;;;;;;;14.18;43.66;98173.47;8256006;28;20202;-65
2021/04/18 10:45:32;;;;;;;11.70;10.60;;;;;;;13.90;44.02;98175.03;8251642;28;20206;-66
2021/04/18 10:49:34;;;;;;;13.03;11.73;;;;;;;13.88;44.43;98167.28;8236214;28;20661;-65
2021/04/18 10:53:37;;;;;;;12.80;11.10;;;;;;;13.81;44.57;98162.50;8236110;28;20241;-65
2021/04/18 10:57:39;;;;;;;12.47;11.13;;;;;;;13.51;44.34;98165.81;8236087;28;20245;-66
2021/04/18 11:01:41;;;;;;;13.33;12.00;;;;;;;13.32;43.70;98159.91;8254620;28;20205;-66
2021/04/18 11:05:43;;;;;;;13.47;12.07;;;;;;;13.18;44.99;98156.22;8267836;28;20661;-65
2021/04/18 11:09:46;;;;;;;11.13;10.03;;;;;;;13.07;44.89;98151.56;8267055;28;20206;-66
2021/04/18 11:13:48;;;;;;;12.50;10.60;;;;;;;13.33;44.52;98154.63;8267912;28;20264;-66
2021/04/18 11:17:50;;;;;;;11.70;10.50;;;;;;;13.48;44.30;98153.81;8267270;28;20633;-65
2021/04/18 11:21:52;;;;;;;12.67;11.37;;;;;;;13.36;43.56;98151.84;8267838;28;20228;-65
2021/04/18 11:25:55;;;;;;;14.03;12.53;;;;;;;13.11;44.55;98147.91;8268238;28;20206;-65
2021/04/18 11:29:57;;;;;;;11.77;10.13;;;;;;;13.05;44.46;98155.19;8267446;28;20206;-64
2021/04/18 11:33:58;;;;;;;12.07;10.80;;;;;;;13.01;45.16;98156.28;8266799;28;20222;-65
2021/04/18 11:38:01;;;;;;;11.30;10.07;;;;;;;13.06;45.02;98157.72;8267426;28;20237;-64
2021/04/18 11:42:04;;;;;;;12.00;10.80;;;;;;;12.89;45.24;98155.97;8267841;28;20214;-67
2021/04/18 11:46:06;;;;;;;11.73;10.57;;;;;;;12.82;45.96;98146.78;8267390;28;20210;-65
2021/04/18 11:50:09;;;;;;;10.80;9.70;;;;;;;12.86;45.68;98145.72;8266880;28;20202;-66
2021/04/18 11:54:11;;;;;;;12.10;10.80;;;;;;;12.84;45.74;98144.13;8266271;28;20233;-66
2021/04/18 11:58:14;;;;;;;12.77;11.37;;;;;;;12.90;45.19;98138.59;8266104;28;20206;-66
2021/04/18 12:02:16;;;;;;;14.93;10.80;;;;;;;13.18;44.69;98145.84;8263113;28;20197;-66
2021/04/18 12:06:18;;;;;;;13.23;11.20;;;;;;;13.23;44.59;98145.59;8265956;28;20264;-66
2021/04/18 12:10:20;;;;;;;13.73;12.17;;;;;;;13.35;45.19;98149.34;8265415;28;20237;-66
2021/04/18 12:14:23;;;;;;;12.87;11.47;;;;;;;13.53;45.23;98144.94;8254138;28;20273;-66
2021/04/18 12:18:25;;;;;;;13.10;11.63;;;;;;;13.32;46.06;98144.31;8262551;28;20233;-65
2021/04/18 12:22:27;;;;;;;19.20;9.17;;;;;;;15.26;47.89;98144.66;8265359;28;20680;-67
2021/04/18 12:26:28;;;;;;;20.47;8.57;;;;;;;15.94;44.12;98148.34;8241069;28;20202;-67
2021/04/18 12:30:31;;;;;;;16.17;9.57;;;;;;;16.00;44.34;98148.78;8232761;28;20527;-69
2021/04/18 12:34:33;;;;;;;16.90;9.60;;;;;;;16.30;43.67;98142.53;8232858;28;20234;-68
2021/04/18 12:38:36;;;;;;;15.67;9.63;;;;;;;16.26;42.56;98148.03;8247512;28;20210;-67
2021/04/18 12:42:38;;;;;;;18.70;9.30;;;;;;;16.47;42.57;98145.81;8264270;28;20276;-67
2021/04/18 12:46:41;;;;;;;13.43;9.27;;;;;;;16.55;41.39;98139.16;8264387;28;20209;-68
2021/04/18 12:50:47;;;;;;;14.90;8.93;;;;;;;16.68;40.65;98136.56;8264362;28;20251;-69
2021/04/18 12:54:49;;;;;;;12.17;8.93;;;;;;;16.88;39.76;98140.47;8263833;28;20251;-68
2021/04/18 12:58:51;;;;;;;13.00;8.47;;;;;;;16.71;40.04;98135.53;8263298;28;20484;-67
2021/04/18 13:02:55;;;;;;;12.10;8.73;;;;;;;16.37;41.05;98145.59;8264028;28;20680;-67
2021/04/18 13:06:57;;;;;;;12.57;8.77;;;;;;;16.37;40.95;98140.34;8264515;28;20206;-68
2021/04/18 13:10:59;;;;;;;11.33;8.57;;;;;;;16.33;41.23;98147.56;8264031;28;20267;-68
2021/04/18 13:15:01;;;;;;;9.97;8.10;;;;;;;16.43;41.60;98145.22;8264028;28;20696;-68
2021/04/18 13:19:04;;;;;;;11.77;8.77;;;;;;;16.53;41.08;98127.97;8263165;28;20245;-65
2021/04/18 13:23:06;;;;;;;16.93;10.97;;;;;;;16.18;41.27;98123.28;8262512;28;20616;-67
2021/04/18 13:27:08;;;;;;;11.90;8.00;;;;;;;16.54;41.47;98119.16;8246733;28;20198;-65
2021/04/18 13:31:10;;;;;;;10.53;8.20;;;;;;;16.64;40.92;98114.19;8246988;28;20293;-66
2021/04/18 13:35:13;;;;;;;12.63;8.80;;;;;;;16.62;40.17;98108.22;8247789;28;20222;-66
2021/04/18 13:39:15;;;;;;;12.77;8.77;;;;;;;16.59;40.91;98105.81;8247311;28;20206;-67
2021/04/18 13:43:17;;;;;;;10.97;8.50;;;;;;;16.79;39.89;98105.31;8244737;28;20630;-67
2021/04/18 13:47:18;;;;;;;9.97;7.90;;;;;;;16.96;39.44;98096.34;8251905;28;20220;-65
2021/04/18 13:51:21;;;;;;;20.60;10.10;;;;;;;16.16;38.92;98106.88;8263267;28;20209;-64
2021/04/18 13:55:23;;;;;;;15.83;10.47;;;;;;;15.63;39.73;98098.00;8250119;28;20225;-65
2021/04/18 13:59:25;;;;;;;13.70;11.13;;;;;;;15.05;41.03;98092.84;8247825;28;20202;-64
2021/04/18 14:03:27;;;;;;;12.27;10.43;;;;;;;15.13;41.26;98097.59;8251962;28;20201;-65
2021/04/18 14:07:30;;;;;;;11.90;10.70;;;;;;;15.73;39.52;98095.69;8229345;28;20424;-66
2021/04/18 14:11:32;;;;;;;12.57;10.27;;;;;;;15.05;39.98;98095.47;8233834;28;20959;-65
2021/04/18 14:15:34;;;;;;;11.90;10.20;;;;;;;15.22;40.35;98096.22;8257832;28;20244;-64
2021/04/18 14:19:36;;;;;;;11.13;9.87;;;;;;;15.97;38.57;98095.91;8266986;28;20233;-66
2021/04/18 14:23:39;;;;;;;13.50;10.40;;;;;;;16.25;38.18;98094.97;8267119;28;20249;-65
2021/04/18 14:27:42;;;;;;;15.30;9.43;;;;;;;16.36;37.67;98083.81;8266450;28;20582;-66
2021/04/18 14:31:44;;;;;;;11.77;9.00;;;;;;;16.58;37.32;98086.69;8265978;28;20202;-65
2021/04/18 14:35:47;;;;;;;12.00;9.50;;;;;;;16.55;36.64;98080.81;8267961;28;20261;-64
2021/04/18 14:39:51;;;;;;;13.73;9.17;;;;;;;16.72;35.54;98077.91;8267977;28;20206;-65
2021/04/18 14:43:53;;;;;;;12.60;9.53;;;;;;;16.90;35.88;98070.59;8268126;28;20213;-65
2021/04/18 14:47:55;;;;;;;10.23;8.20;;;;;;;17.28;36.06;98077.56;8268014;28;20208;-64
2021/04/18 14:51:58;;;;;;;8.40;7.50;;;;;;;17.29;35.00;98071.41;8268144;28;20297;-65
2021/04/18 14:56:01;;;;;;;15.63;8.03;;;;;;;16.45;35.96;98064.06;8267521;28;20517;-65
2021/04/18 15:00:05;;;;;;;13.57;8.00;;;;;;;16.08;37.16;98061.25;8267683;28;20324;-65
2021/04/18 15:04:07;;;;;;;18.17;11.97;;;;;;;15.56;39.39;98068.03;8267673;28;20561;-65
2021/04/18 15:08:09;;;;;;;10.83;8.83;;;;;;;15.33;38.95;98066.88;8266735;28;20206;-65
2021/04/18 15:12:12;;;;;;;12.40;9.37;;;;;;;15.19;39.24;98071.16;8267560;28;20202;-65
2021/04/18 15:16:13;;;;;;;12.73;9.43;;;;;;;14.99;39.85;98069.75;8266939;28;20573;-65
2021/04/18 15:20:17;;;;;;;11.40;9.53;;;;;;;14.98;40.39;98068.09;8267305;28;20681;-65
2021/04/18 15:24:19;;;;;;;10.90;9.00;;;;;;;14.72;41.27;98067.06;8266846;28;20552;-65
2021/04/18 15:28:22;;;;;;;13.87;11.20;;;;;;;14.72;41.25;98074.88;8267090;28;20209;-65
2021/04/18 15:32:24;;;;;;;15.77;10.70;;;;;;;14.34;41.96;98077.09;8265898;28;20213;-65
2021/04/18 15:36:26;;;;;;;11.90;9.70;;;;;;;14.47;41.99;98070.25;8265520;28;20237;-65
2021/04/18 15:40:31;;;;;;;12.33;9.60;;;;;;;14.21;42.01;98072.56;8260546;28;20491;-66
2021/04/18 15:44:33;;;;;;;15.17;8.00;;;;;;;14.30;43.51;98072.97;8251411;28;20566;-65
2021/04/18 15:48:35;;;;;;;12.67;9.80;;;;;;;14.16;42.52;98069.38;8265818;28;20229;-65
2021/04/18 15:52:38;;;;;;;12.00;8.97;;;;;;;14.13;42.99;98076.56;8265843;28;20212;-65
2021/04/18 15:56:40;;;;;;;12.30;9.00;;;;;;;13.98;42.79;98076.50;8265752;28;20326;-71
2021/04/18 16:00:43;;;;;;;12.33;9.57;;;;;;;13.92;43.04;98078.59;8265289;28;20235;-66
2021/04/18 16:04:46;;;;;;;14.43;10.13;;;;;;;13.82;43.25;98076.53;8262362;28;20572;-65
2021/04/18 16:08:50;;;;;;;13.27;10.93;;;;;;;13.78;43.55;98077.59;8265162;28;20193;-65
2021/04/18 16:12:52;;;;;;;13.77;10.37;;;;;;;13.89;43.67;98085.66;8265566;28;20526;-70
2021/04/18 16:16:55;;;;;;;12.50;10.13;;;;;;;13.76;44.83;98081.22;8264677;28;20253;-65
2021/04/18 16:20:57;;;;;;;13.80;10.93;;;;;;;13.63;45.38;98078.44;8250996;28;20273;-65
2021/04/18 16:24:59;;;;;;;13.70;10.90;;;;;;;13.67;45.72;98083.41;8246219;28;20209;-66
2021/04/18 16:29:00;;;;;;;13.87;11.03;;;;;;;13.43;46.44;98090.78;8235574;28;20199;-64
2021/04/18 16:33:04;;;;;;;13.80;11.50;;;;;;;13.50;46.52;98083.50;8232598;28;20207;-66
2021/04/18 16:37:06;;;;;;;14.87;11.47;;;;;;;13.44;47.02;98087.28;8252058;28;20308;-65
2021/04/18 16:41:08;;;;;;;14.97;11.53;;;;;;;13.41;46.93;98086.59;8254898;28;20216;-65
2021/04/18 16:45:11;;;;;;;16.00;11.97;;;;;;;13.27;47.08;98089.91;8264552;28;20260;-65
2021/04/18 16:49:15;;;;;;;13.80;11.53;;;;;;;13.28;47.53;98095.00;8265305;28;20667;-65
2021/04/18 16:53:18;;;;;;;21.37;17.07;;;;;;;13.11;47.96;98092.47;8264371;28;20660;-65
2021/04/18 16:57:20;;;;;;;29.87;24.73;;;;;;;13.13;47.86;98095.81;8261628;28;20233;-65
2021/04/18 17:01:22;;;;;;;21.83;16.77;;;;;;;13.17;47.77;98099.94;8263740;28;20211;-65
2021/04/18 17:05:25;;;;;;;18.53;14.53;;;;;;;13.15;48.06;98099.19;8264104;28;20297;-65
2021/04/18 17:09:28;;;;;;;24.93;21.63;;;;;;;13.16;47.94;98108.66;8264086;28;20205;-64
2021/04/18 17:13:30;;;;;;;20.63;16.60;;;;;;;13.18;47.97;98109.44;8263187;28;20249;-64
2021/04/18 17:17:32;;;;;;;20.70;16.70;;;;;;;13.15;48.06;98113.94;8263856;28;20245;-65
2021/04/18 17:21:35;;;;;;;24.13;20.40;;;;;;;13.08;48.39;98110.84;8263616;28;20622;-65
2021/04/18 17:25:37;;;;;;;25.17;19.27;;;;;;;13.09;48.61;98115.94;8263285;28;20258;-64
2021/04/18 17:29:39;;;;;;;22.50;17.07;;;;;;;13.06;48.83;98120.44;8263678;28;20623;-64
2021/04/18 17:33:41;;;;;;;25.70;18.33;;;;;;;13.10;48.88;98120.22;8263573;28;20205;-64
2021/04/18 17:37:45;;;;;;;23.60;16.03;;;;;;;13.21;48.72;98124.03;8263771;28;20209;-64
2021/04/18 17:41:47;;;;;;;21.83;17.50;;;;;;;13.02;49.17;98121.53;8263341;28;20216;-65
2021/04/18 17:45:49;;;;;;;22.50;15.60;;;;;;;13.06;50.25;98123.91;8267546;28;20225;-65
2021/04/18 17:49:51;;;;;;;18.53;10.03;;;;;;;14.53;50.97;98135.03;8272009;28;20236;-69
2021/04/18 17:53:54;;;;;;;18.73;11.47;;;;;;;15.03;46.46;98128.63;8269869;28;20202;-69
2021/04/18 17:57:56;;;;;;;17.70;12.47;;;;;;;15.10;45.04;98128.25;8270089;28;20225;-68
2021/04/18 18:01:58;;;;;;;19.93;15.93;;;;;;;14.31;46.39;98132.78;8269968;28;20511;-65
2021/04/18 18:06:00;;;;;;;23.07;16.00;;;;;;;13.97;46.95;98132.06;8270638;28;20210;-65
2021/04/18 18:10:03;;;;;;;23.17;17.67;;;;;;;13.60;47.82;98136.72;8270483;28;20213;-66
2021/04/18 18:14:05;;;;;;;21.97;14.90;;;;;;;13.56;47.96;98136.97;8269550;28;20524;-66
2021/04/18 18:18:07;;;;;;;21.80;16.77;;;;;;;13.33;48.54;98133.81;8269759;28;20702;-65
2021/04/18 18:22:12;;;;;;;21.90;16.83;;;;;;;13.29;48.83;98138.31;8270070;28;20689;-65
2021/04/18 18:26:15;;;;;;;19.37;15.30;;;;;;;13.24;49.13;98145.50;8269288;28;20213;-65
2021/04/18 18:30:19;;;;;;;24.13;16.73;;;;;;;13.09;49.42;98141.94;8269546;28;20630;-65
2021/04/18 18:34:21;;;;;;;25.97;17.60;;;;;;;13.09;49.58;98149.75;8268981;28;20229;-65
2021/04/18 18:38:23;;;;;;;29.67;18.90;;;;;;;12.99;49.95;98148.53;8269471;28;20646;-64
2021/04/18 18:42:26;;;;;;;22.30;15.83;;;;;;;12.95;50.23;98152.22;8269112;28;20206;-65
2021/04/18 18:46:28;;;;;;;22.83;16.60;;;;;;;12.93;50.63;98151.47;8268858;28;20209;-65
2021/04/18 18:50:30;;;;;;;22.43;16.10;;;;;;;12.81;50.70;98152.94;8269328;28;20208;-65
2021/04/18 18:54:32;;;;;;;25.03;17.17;;;;;;;12.81;50.85;98150.34;8269052;28;20229;-65